createdAt,value
2023-02-02T00:00:48.987Z,84.76
2023-02-02T00:01:48.926Z,84.79
2023-02-02T00:02:49.059Z,84.45
2023-02-02T00:03:48.935Z,84.39
2023-02-02T00:04:48.906Z,84.36
2023-02-02T00:05:48.856Z,84.09
2023-02-02T00:06:48.916Z,84.40
2023-02-02T00:07:48.855Z,84.42
2023-02-02T00:08:48.834Z,84.60
2023-02-02T00:09:48.816Z,84.75
2023-02-02T00:10:48.856Z,84.62
2023-02-02T00:11:48.796Z,84.63
2023-02-02T00:12:48.871Z,84.68
2023-02-02T00:13:48.771Z,84.70
2023-02-02T00:14:48.788Z,84.92
2023-02-02T00:15:48.724Z,85.05
2023-02-02T00:16:48.785Z,85.24
2023-02-02T00:17:48.701Z,85.29
2023-02-02T00:18:48.720Z,84.63
2023-02-02T00:19:48.719Z,84.62
2023-02-02T00:20:48.715Z,84.57
2023-02-02T00:21:48.648Z,84.48
2023-02-02T00:22:48.737Z,84.38
2023-02-02T00:23:48.629Z,84.54
2023-02-02T00:24:48.651Z,84.22
2023-02-02T00:25:48.615Z,84.58
2023-02-02T00:26:48.703Z,84.50
2023-02-02T00:27:48.573Z,84.70
2023-02-02T00:28:48.672Z,84.95
2023-02-02T00:29:48.843Z,85.50
2023-02-02T00:30:48.596Z,85.85
2023-02-02T00:31:48.633Z,85.89
2023-02-02T00:32:48.611Z,86.35
2023-02-02T00:33:48.494Z,86.52
2023-02-02T00:34:48.514Z,86.52
2023-02-02T00:35:48.470Z,86.53
2023-02-02T00:36:48.538Z,86.68
2023-02-02T00:37:48.502Z,86.75
2023-02-02T00:38:48.432Z,86.81
2023-02-02T00:39:48.423Z,86.87
2023-02-02T00:40:48.452Z,87.01
2023-02-02T00:41:48.384Z,87.02
2023-02-02T00:42:48.462Z,86.90
2023-02-02T00:43:48.393Z,86.40
2023-02-02T00:44:48.381Z,86.35
2023-02-02T00:45:48.377Z,86.68
2023-02-02T00:46:48.399Z,87.05
2023-02-02T00:47:48.316Z,86.86
2023-02-02T00:48:48.300Z,86.54
2023-02-02T00:49:48.301Z,86.59
2023-02-02T00:50:48.329Z,86.54
2023-02-02T00:51:48.253Z,86.40
2023-02-02T00:52:48.346Z,86.35
2023-02-02T00:53:48.232Z,86.44
2023-02-02T00:54:48.241Z,86.49
2023-02-02T00:55:48.218Z,86.35
2023-02-02T00:56:48.272Z,86.72
2023-02-02T00:57:48.172Z,86.83
2023-02-02T00:58:48.177Z,86.75
2023-02-02T00:59:48.143Z,86.64
2023-02-02T01:00:48.262Z,86.49
2023-02-02T01:01:48.181Z,86.44
2023-02-02T01:02:48.210Z,86.47
2023-02-02T01:03:48.095Z,86.47
2023-02-02T01:04:49.143Z,86.38
2023-02-02T01:05:48.060Z,86.29
2023-02-02T01:06:48.138Z,86.30
2023-02-02T01:07:48.071Z,86.45
2023-02-02T01:08:48.057Z,86.38
2023-02-02T01:09:48.016Z,86.34
2023-02-02T01:10:48.047Z,85.76
2023-02-02T01:11:47.977Z,85.86
2023-02-02T01:12:48.070Z,85.80
2023-02-02T01:13:48.024Z,85.65
2023-02-02T01:14:47.990Z,85.76
2023-02-02T01:15:47.940Z,85.89
2023-02-02T01:16:48.152Z,85.79
2023-02-02T01:17:47.905Z,85.47
2023-02-02T01:18:47.918Z,85.32
2023-02-02T01:19:47.908Z,85.44
2023-02-02T01:20:47.928Z,85.45
2023-02-02T01:21:47.857Z,85.23
2023-02-02T01:22:47.945Z,85.33
2023-02-02T01:23:47.833Z,84.99
2023-02-02T01:24:47.856Z,85.21
2023-02-02T01:25:47.818Z,84.99
2023-02-02T01:26:47.879Z,84.71
2023-02-02T01:27:47.775Z,84.89
2023-02-02T01:28:47.777Z,84.96
2023-02-02T01:29:47.746Z,84.91
2023-02-02T01:30:47.810Z,85.02
2023-02-02T01:31:47.837Z,85.26
2023-02-02T01:32:47.808Z,85.22
2023-02-02T01:33:47.713Z,85.10
2023-02-02T01:34:47.716Z,84.89
2023-02-02T01:35:47.678Z,84.93
2023-02-02T01:36:47.725Z,84.56
2023-02-02T01:37:47.663Z,84.29
2023-02-02T01:38:47.654Z,84.11
2023-02-02T01:39:47.615Z,84.23
2023-02-02T01:40:47.663Z,83.96
2023-02-02T01:41:47.585Z,83.81
2023-02-02T01:42:47.695Z,83.63
2023-02-02T01:43:47.572Z,83.31
2023-02-02T01:44:47.587Z,83.56
2023-02-02T01:45:47.541Z,83.61
2023-02-02T01:46:47.603Z,83.45
2023-02-02T01:47:47.522Z,83.21
2023-02-02T01:48:47.519Z,83.24
2023-02-02T01:49:47.502Z,83.29
2023-02-02T01:50:48.552Z,83.27
2023-02-02T01:51:47.496Z,83.09
2023-02-02T01:52:47.550Z,82.27
2023-02-02T01:53:47.430Z,82.38
2023-02-02T01:54:47.460Z,82.55
2023-02-02T01:55:47.420Z,82.14
2023-02-02T01:56:47.470Z,82.44
2023-02-02T01:57:47.379Z,81.79
2023-02-02T01:58:47.385Z,81.98
2023-02-02T01:59:47.360Z,81.95
2023-02-02T02:00:47.410Z,81.87
2023-02-02T02:01:47.342Z,81.42
2023-02-02T02:02:47.414Z,81.55
2023-02-02T02:03:47.300Z,81.67
2023-02-02T02:04:47.320Z,81.67
2023-02-02T02:05:47.353Z,81.29
2023-02-02T02:06:47.341Z,81.26
2023-02-02T02:07:47.260Z,81.72
2023-02-02T02:08:47.243Z,81.17
2023-02-02T02:09:47.221Z,81.47
2023-02-02T02:10:47.264Z,81.07
2023-02-02T02:11:47.197Z,81.31
2023-02-02T02:12:47.290Z,80.76
2023-02-02T02:13:47.182Z,80.79
2023-02-02T02:14:47.189Z,81.15
2023-02-02T02:15:47.150Z,81.26
2023-02-02T02:16:47.315Z,81.11
2023-02-02T02:17:47.109Z,81.37
2023-02-02T02:18:47.117Z,81.39
2023-02-02T02:19:47.102Z,81.42
2023-02-02T02:20:47.129Z,81.42
2023-02-02T02:21:47.065Z,81.74
2023-02-02T02:22:47.157Z,81.46
2023-02-02T02:23:47.035Z,81.45
2023-02-02T02:24:47.064Z,81.39
2023-02-02T02:25:47.028Z,81.33
2023-02-02T02:26:48.183Z,81.65
2023-02-02T02:27:46.986Z,81.84
2023-02-02T02:28:46.988Z,81.65
2023-02-02T02:29:46.956Z,81.61
2023-02-02T02:30:47.054Z,81.30
2023-02-02T02:31:47.099Z,81.42
2023-02-02T02:32:47.011Z,81.14
2023-02-02T02:33:46.907Z,80.86
2023-02-02T02:34:46.949Z,80.81
2023-02-02T02:35:46.876Z,80.89
2023-02-02T02:36:46.945Z,80.91
2023-02-02T02:37:46.888Z,81.02
2023-02-02T02:38:47.882Z,80.90
2023-02-02T02:39:46.828Z,80.28
2023-02-02T02:40:46.866Z,80.32
2023-02-02T02:41:46.797Z,80.04
2023-02-02T02:42:46.885Z,79.27
2023-02-02T02:43:46.797Z,79.36
2023-02-02T02:44:46.786Z,79.41
2023-02-02T02:45:46.735Z,78.94
2023-02-02T02:46:46.806Z,79.03
2023-02-02T02:47:46.710Z,78.51
2023-02-02T02:48:46.737Z,78.30
2023-02-02T02:49:46.706Z,78.09
2023-02-02T02:50:46.745Z,78.16
2023-02-02T02:51:46.664Z,77.79
2023-02-02T02:52:46.761Z,78.00
2023-02-02T02:53:46.653Z,77.60
2023-02-02T02:54:46.655Z,77.76
2023-02-02T02:55:46.628Z,78.20
2023-02-02T02:56:46.674Z,78.46
2023-02-02T02:57:46.601Z,78.17
2023-02-02T02:58:46.585Z,78.10
2023-02-02T02:59:46.566Z,78.19
2023-02-02T03:00:46.613Z,78.17
2023-02-02T03:01:46.580Z,78.30
2023-02-02T03:02:46.654Z,78.37
2023-02-02T03:03:46.546Z,78.25
2023-02-02T03:04:47.565Z,78.55
2023-02-02T03:05:46.482Z,78.57
2023-02-02T03:06:46.542Z,78.95
2023-02-02T03:07:46.472Z,78.71
2023-02-02T03:08:46.454Z,78.87
2023-02-02T03:09:46.422Z,79.26
2023-02-02T03:10:46.477Z,79.14
2023-02-02T03:11:46.402Z,78.91
2023-02-02T03:12:46.486Z,79.04
2023-02-02T03:13:46.409Z,79.47
2023-02-02T03:14:46.397Z,79.48
2023-02-02T03:15:46.472Z,79.41
2023-02-02T03:16:46.420Z,79.12
2023-02-02T03:17:46.327Z,79.26
2023-02-02T03:18:46.440Z,79.42
2023-02-02T03:19:46.311Z,79.57
2023-02-02T03:20:46.336Z,79.69
2023-02-02T03:21:46.269Z,79.83
2023-02-02T03:22:46.351Z,79.59
2023-02-02T03:23:46.245Z,79.38
2023-02-02T03:24:46.263Z,79.32
2023-02-02T03:25:46.230Z,79.38
2023-02-02T03:26:46.330Z,79.53
2023-02-02T03:27:46.201Z,79.61
2023-02-02T03:28:46.297Z,79.65
2023-02-02T03:29:46.168Z,79.85
2023-02-02T03:30:46.374Z,79.56
2023-02-02T03:31:46.163Z,79.56
2023-02-02T03:32:46.222Z,79.88
2023-02-02T03:33:46.120Z,80.00
2023-02-02T03:34:46.130Z,80.11
2023-02-02T03:35:46.083Z,80.22
2023-02-02T03:36:46.151Z,80.36
2023-02-02T03:37:46.071Z,80.38
2023-02-02T03:38:46.182Z,80.46
2023-02-02T03:39:46.030Z,80.54
2023-02-02T03:40:46.075Z,80.56
2023-02-02T03:41:46.010Z,80.48
2023-02-02T03:42:46.090Z,80.29
2023-02-02T03:43:46.011Z,80.11
2023-02-02T03:44:46.000Z,80.11
2023-02-02T03:45:45.948Z,79.88
2023-02-02T03:46:46.065Z,79.51
2023-02-02T03:47:45.935Z,79.63
2023-02-02T03:48:46.034Z,79.50
2023-02-02T03:49:45.938Z,79.39
2023-02-02T03:50:45.948Z,79.42
2023-02-02T03:51:45.868Z,79.35
2023-02-02T03:52:45.958Z,79.19
2023-02-02T03:53:45.867Z,78.98
2023-02-02T03:54:45.867Z,79.04
2023-02-02T03:55:45.847Z,79.23
2023-02-02T03:56:45.879Z,79.23
2023-02-02T03:57:45.796Z,78.72
2023-02-02T03:58:45.899Z,78.34
2023-02-02T03:59:45.767Z,78.38
2023-02-02T04:00:45.808Z,78.28
2023-02-02T04:01:45.825Z,78.31
2023-02-02T04:02:45.871Z,78.18
2023-02-02T04:03:45.719Z,78.25
2023-02-02T04:04:45.731Z,78.02
2023-02-02T04:05:45.687Z,78.11
2023-02-02T04:06:45.746Z,78.02
2023-02-02T04:07:45.686Z,78.03
2023-02-02T04:08:45.767Z,78.08
2023-02-02T04:09:45.638Z,77.98
2023-02-02T04:10:45.690Z,78.05
2023-02-02T04:11:45.616Z,78.08
2023-02-02T04:12:45.697Z,78.19
2023-02-02T04:13:45.612Z,77.88
2023-02-02T04:14:45.609Z,77.60
2023-02-02T04:15:45.561Z,77.83
2023-02-02T04:16:45.618Z,78.05
2023-02-02T04:17:45.527Z,78.02
2023-02-02T04:18:45.547Z,78.04
2023-02-02T04:19:45.550Z,78.18
2023-02-02T04:20:45.556Z,78.30
2023-02-02T04:21:45.488Z,78.46
2023-02-02T04:22:45.567Z,78.82
2023-02-02T04:23:45.459Z,78.72
2023-02-02T04:24:45.468Z,78.64
2023-02-02T04:25:45.454Z,78.61
2023-02-02T04:26:45.570Z,78.82
2023-02-02T04:27:45.398Z,78.81
2023-02-02T04:28:45.497Z,78.81
2023-02-02T04:29:45.365Z,78.88
2023-02-02T04:30:45.458Z,78.75
2023-02-02T04:31:45.383Z,78.86
2023-02-02T04:32:45.434Z,78.79
2023-02-02T04:33:45.325Z,79.05
2023-02-02T04:34:45.357Z,79.20
2023-02-02T04:35:45.295Z,79.01
2023-02-02T04:36:45.354Z,78.77
2023-02-02T04:37:45.286Z,78.60
2023-02-02T04:38:45.270Z,78.60
2023-02-02T04:39:45.244Z,78.71
2023-02-02T04:40:45.299Z,78.61
2023-02-02T04:41:45.217Z,78.55
2023-02-02T04:42:45.315Z,78.45
2023-02-02T04:43:45.215Z,78.48
2023-02-02T04:44:45.209Z,78.38
2023-02-02T04:45:45.275Z,78.43
2023-02-02T04:46:45.222Z,78.36
2023-02-02T04:47:45.131Z,78.36
2023-02-02T04:48:45.139Z,78.32
2023-02-02T04:49:45.128Z,78.29
2023-02-02T04:50:45.164Z,78.29
2023-02-02T04:51:45.083Z,78.28
2023-02-02T04:52:45.172Z,78.09
2023-02-02T04:53:45.102Z,78.13
2023-02-02T04:54:45.080Z,78.11
2023-02-02T04:55:45.053Z,78.02
2023-02-02T04:56:45.114Z,78.01
2023-02-02T04:57:45.018Z,78.11
2023-02-02T04:58:45.015Z,77.89
2023-02-02T04:59:44.984Z,77.94
2023-02-02T05:00:45.161Z,77.79
2023-02-02T05:01:44.980Z,77.87
2023-02-02T05:02:45.138Z,78.13
2023-02-02T05:03:44.930Z,78.02
2023-02-02T05:04:45.002Z,77.89
2023-02-02T05:05:44.893Z,77.88
2023-02-02T05:06:44.959Z,78.00
2023-02-02T05:07:44.891Z,77.95
2023-02-02T05:08:44.877Z,77.69
2023-02-02T05:09:44.842Z,77.71
2023-02-02T05:10:44.883Z,77.82
2023-02-02T05:11:44.821Z,77.89
2023-02-02T05:12:44.907Z,77.94
2023-02-02T05:13:44.825Z,77.94
2023-02-02T05:14:44.817Z,78.09
2023-02-02T05:15:44.761Z,78.21
2023-02-02T05:16:44.847Z,78.30
2023-02-02T05:17:44.742Z,78.39
2023-02-02T05:18:44.739Z,78.82
2023-02-02T05:19:44.733Z,78.75
2023-02-02T05:20:44.749Z,78.64
2023-02-02T05:21:44.690Z,78.63
2023-02-02T05:22:44.775Z,78.92
2023-02-02T05:23:44.680Z,78.88
2023-02-02T05:24:44.697Z,78.97
2023-02-02T05:25:44.651Z,79.23
2023-02-02T05:26:44.696Z,79.28
2023-02-02T05:27:44.618Z,80.01
2023-02-02T05:28:44.610Z,80.24
2023-02-02T05:29:44.586Z,80.50
2023-02-02T05:30:44.651Z,80.58
2023-02-02T05:31:44.606Z,80.03
2023-02-02T05:32:46.638Z,80.16
2023-02-02T05:33:44.545Z,80.35
2023-02-02T05:34:44.557Z,80.60
2023-02-02T05:35:44.505Z,80.77
2023-02-02T05:36:44.572Z,80.87
2023-02-02T05:37:44.491Z,80.18
2023-02-02T05:38:44.583Z,80.16
2023-02-02T05:39:44.448Z,79.89
2023-02-02T05:40:44.492Z,79.60
2023-02-02T05:41:44.427Z,79.91
2023-02-02T05:42:44.507Z,79.98
2023-02-02T05:43:44.429Z,80.55
2023-02-02T05:44:44.428Z,80.86
2023-02-02T05:45:44.411Z,80.94
2023-02-02T05:46:44.428Z,81.33
2023-02-02T05:47:44.346Z,81.89
2023-02-02T05:48:44.454Z,81.84
2023-02-02T05:49:44.326Z,80.54
2023-02-02T05:50:44.358Z,80.20
2023-02-02T05:51:44.293Z,80.33
2023-02-02T05:52:44.376Z,80.08
2023-02-02T05:53:44.284Z,79.90
2023-02-02T05:54:44.301Z,78.92
2023-02-02T05:55:44.263Z,78.38
2023-02-02T05:56:44.315Z,78.21
2023-02-02T05:57:44.215Z,78.43
2023-02-02T05:58:44.233Z,78.26
2023-02-02T05:59:44.199Z,78.00
2023-02-02T06:00:44.235Z,77.87
2023-02-02T06:01:44.175Z,77.40
2023-02-02T06:02:44.284Z,77.34
2023-02-02T06:03:44.277Z,77.19
2023-02-02T06:04:44.174Z,77.14
2023-02-02T06:05:44.104Z,76.83
2023-02-02T06:06:44.184Z,76.36
2023-02-02T06:07:44.115Z,76.20
2023-02-02T06:08:44.917Z,76.09
2023-02-02T06:09:44.053Z,75.84
2023-02-02T06:10:44.098Z,75.83
2023-02-02T06:11:44.034Z,75.62
2023-02-02T06:12:44.113Z,75.62
2023-02-02T06:13:45.940Z,75.25
2023-02-02T06:14:44.017Z,75.39
2023-02-02T06:15:44.063Z,74.95
2023-02-02T06:16:44.042Z,74.77
2023-02-02T06:17:43.962Z,74.64
2023-02-02T06:18:44.084Z,74.42
2023-02-02T06:19:43.957Z,74.39
2023-02-02T06:20:43.967Z,74.43
2023-02-02T06:21:43.902Z,74.55
2023-02-02T06:22:43.992Z,74.20
2023-02-02T06:23:43.876Z,74.40
2023-02-02T06:24:43.893Z,74.58
2023-02-02T06:25:43.857Z,74.67
2023-02-02T06:26:43.917Z,74.71
2023-02-02T06:27:43.830Z,74.61
2023-02-02T06:28:43.856Z,74.64
2023-02-02T06:29:43.832Z,74.50
2023-02-02T06:30:44.349Z,74.73
2023-02-02T06:31:43.904Z,74.51
2023-02-02T06:32:44.761Z,74.22
2023-02-02T06:33:43.742Z,74.23
2023-02-02T06:34:43.769Z,74.23
2023-02-02T06:35:43.713Z,74.07
2023-02-02T06:36:43.771Z,74.08
2023-02-02T06:37:43.699Z,74.14
2023-02-02T06:38:44.711Z,74.12
2023-02-02T06:39:43.661Z,73.80
2023-02-02T06:40:43.707Z,73.77
2023-02-02T06:41:43.628Z,73.79
2023-02-02T06:42:43.812Z,73.75
2023-02-02T06:43:43.631Z,73.83
2023-02-02T06:44:43.620Z,73.75
2023-02-02T06:45:43.727Z,73.50
2023-02-02T06:47:04.839Z,73.75
2023-02-02T06:47:43.568Z,74.10
2023-02-02T06:48:43.682Z,73.64
2023-02-02T06:49:43.559Z,73.41
2023-02-02T06:50:43.571Z,73.32
2023-02-02T06:51:43.511Z,73.00
2023-02-02T06:52:43.581Z,72.96
2023-02-02T06:53:43.485Z,73.01
2023-02-02T06:54:43.504Z,72.78
2023-02-02T06:55:43.469Z,72.55
2023-02-02T06:56:43.499Z,72.78
2023-02-02T06:57:43.419Z,72.51
2023-02-02T06:58:43.532Z,72.60
2023-02-02T06:59:43.407Z,72.79
2023-02-02T07:00:43.438Z,73.06
2023-02-02T07:01:43.436Z,73.11
2023-02-02T07:02:43.489Z,73.37
2023-02-02T07:03:43.378Z,73.80
2023-02-02T07:04:43.369Z,74.17
2023-02-02T07:05:43.309Z,74.56
2023-02-02T07:06:43.381Z,74.60
2023-02-02T07:07:43.326Z,74.80
2023-02-02T07:08:43.315Z,75.02
2023-02-02T07:09:43.268Z,75.35
2023-02-02T07:11:14.551Z,75.79
2023-02-02T07:11:45.092Z,76.07
2023-02-02T07:12:43.219Z,76.25
2023-02-02T07:13:43.273Z,76.26
2023-02-02T07:14:43.197Z,76.35
2023-02-02T07:15:43.286Z,76.59
2023-02-02T07:16:43.184Z,76.72
2023-02-02T07:17:43.252Z,76.69
2023-02-02T07:18:43.137Z,76.73
2023-02-02T07:19:43.219Z,76.79
2023-02-02T07:20:43.137Z,77.01
2023-02-02T07:21:43.176Z,76.68
2023-02-02T07:22:43.087Z,76.63
2023-02-02T07:23:43.098Z,76.69
2023-02-02T07:24:43.076Z,76.44
2023-02-02T07:25:43.961Z,76.42
2023-02-02T07:26:43.136Z,75.36
2023-02-02T07:27:43.133Z,75.38
2023-02-02T07:28:43.415Z,75.46
2023-02-02T07:29:43.035Z,75.26
2023-02-02T07:30:43.038Z,75.54
2023-02-02T07:31:43.165Z,75.18
2023-02-02T07:32:42.955Z,75.21
2023-02-02T07:33:42.962Z,75.37
2023-02-02T07:34:42.936Z,75.37
2023-02-02T07:35:43.705Z,75.57
2023-02-02T07:36:42.930Z,75.46
2023-02-02T07:37:42.966Z,75.73
2023-02-02T07:38:42.875Z,75.57
2023-02-02T07:39:42.898Z,75.48
2023-02-02T07:40:42.844Z,75.43
2023-02-02T07:41:42.977Z,75.58
2023-02-02T07:42:44.911Z,75.58
2023-02-02T07:43:42.875Z,75.73
2023-02-02T07:44:42.801Z,75.78
2023-02-02T07:46:04.874Z,75.68
2023-02-02T07:46:42.803Z,75.57
2023-02-02T07:47:42.861Z,75.80
2023-02-02T07:48:42.734Z,75.77
2023-02-02T07:49:42.824Z,76.16
2023-02-02T07:50:42.713Z,75.94
2023-02-02T07:51:47.160Z,75.78
2023-02-02T07:52:43.693Z,75.75
2023-02-02T07:53:42.696Z,75.50
2023-02-02T07:54:42.668Z,75.59
2023-02-02T07:55:42.771Z,75.43
2023-02-02T07:56:42.652Z,75.16
2023-02-02T07:57:42.734Z,75.09
2023-02-02T07:58:42.615Z,75.13
2023-02-02T07:59:43.731Z,75.18
2023-02-02T08:00:42.637Z,75.09
2023-02-02T08:01:42.761Z,74.92
2023-02-02T08:02:42.596Z,74.64
2023-02-02T08:03:42.565Z,74.84
2023-02-02T08:04:42.538Z,75.04
2023-02-02T08:05:42.583Z,75.60
2023-02-02T08:06:42.503Z,74.86
2023-02-02T08:07:42.618Z,74.27
2023-02-02T08:08:42.482Z,73.87
2023-02-02T08:09:42.503Z,73.78
2023-02-02T08:10:42.452Z,73.89
2023-02-02T08:11:42.524Z,73.56
2023-02-02T08:12:42.429Z,73.52
2023-02-02T08:13:42.503Z,73.77
2023-02-02T08:14:42.401Z,73.99
2023-02-02T08:15:43.514Z,73.50
2023-02-02T08:16:42.462Z,73.14
2023-02-02T08:17:42.492Z,72.81
2023-02-02T08:18:42.361Z,72.94
2023-02-02T08:19:42.552Z,72.61
2023-02-02T08:20:42.344Z,72.67
2023-02-02T08:21:42.401Z,73.01
2023-02-02T08:22:42.295Z,72.74
2023-02-02T08:23:42.340Z,73.07
2023-02-02T08:24:42.406Z,73.52
2023-02-02T08:25:42.380Z,73.32
2023-02-02T08:26:42.391Z,73.67
2023-02-02T08:27:42.527Z,73.09
2023-02-02T08:28:42.232Z,72.83
2023-02-02T08:29:42.276Z,73.00
2023-02-02T08:30:46.512Z,72.79
2023-02-02T08:31:42.265Z,72.19
2023-02-02T08:32:42.262Z,72.25
2023-02-02T08:33:42.151Z,72.42
2023-02-02T08:34:42.179Z,72.81
2023-02-02T08:35:42.639Z,72.86
2023-02-02T08:36:42.197Z,72.72
2023-02-02T08:37:42.110Z,72.54
2023-02-02T08:38:42.137Z,72.57
2023-02-02T08:39:42.058Z,72.65
2023-02-02T08:40:42.119Z,71.94
2023-02-02T08:41:42.057Z,71.87
2023-02-02T08:42:42.130Z,71.96
2023-02-02T08:43:42.028Z,72.14
2023-02-02T08:46:00.146Z,72.77
2023-02-02T08:46:00.272Z,72.88
2023-02-02T08:46:43.104Z,72.31
2023-02-02T08:47:42.088Z,72.74
2023-02-02T08:48:41.989Z,72.61
2023-02-02T08:49:41.949Z,72.83
2023-02-02T08:50:42.018Z,72.59
2023-02-02T08:51:41.924Z,72.42
2023-02-02T08:52:42.006Z,72.75
2023-02-02T08:53:41.885Z,72.65
2023-02-02T08:54:41.916Z,72.73
2023-02-02T08:55:41.879Z,72.63
2023-02-02T08:56:41.944Z,72.50
2023-02-02T08:57:41.836Z,72.76
2023-02-02T08:59:04.962Z,73.04
2023-02-02T08:59:41.806Z,73.24
2023-02-02T09:00:41.906Z,73.22
2023-02-02T09:01:41.796Z,72.44
2023-02-02T09:02:41.868Z,72.48
2023-02-02T09:03:41.751Z,72.76
2023-02-02T09:04:41.792Z,73.10
2023-02-02T09:05:41.721Z,72.62
2023-02-02T09:06:41.818Z,72.30
2023-02-02T09:07:41.715Z,71.99
2023-02-02T09:08:41.792Z,72.05
2023-02-02T09:09:41.686Z,72.27
2023-02-02T09:10:41.755Z,72.42
2023-02-02T09:11:41.637Z,72.41
2023-02-02T09:12:41.773Z,71.75
2023-02-02T09:13:41.698Z,71.75
2023-02-02T09:14:41.651Z,71.64
2023-02-02T09:15:41.604Z,71.75
2023-02-02T09:16:41.715Z,71.53
2023-02-02T09:17:41.565Z,71.57
2023-02-02T09:18:41.597Z,71.57
2023-02-02T09:19:41.550Z,71.57
2023-02-02T09:20:41.592Z,71.59
2023-02-02T09:21:41.539Z,71.09
2023-02-02T09:22:41.614Z,71.00
2023-02-02T09:23:41.492Z,71.42
2023-02-02T09:24:41.522Z,71.46
2023-02-02T09:25:41.485Z,71.36
2023-02-02T09:26:41.553Z,71.74
2023-02-02T09:27:41.455Z,71.28
2023-02-02T09:28:41.478Z,71.11
2023-02-02T09:29:41.464Z,71.37
2023-02-02T09:30:41.514Z,71.32
2023-02-02T09:31:41.453Z,71.47
2023-02-02T09:32:41.486Z,71.44
2023-02-02T09:33:41.360Z,71.69
2023-02-02T09:34:41.439Z,71.04
2023-02-02T09:35:41.338Z,71.12
2023-02-02T09:36:41.428Z,71.33
2023-02-02T09:37:41.314Z,71.03
2023-02-02T09:38:41.318Z,71.35
2023-02-02T09:39:41.259Z,71.36
2023-02-02T09:40:41.483Z,70.81
2023-02-02T09:41:41.246Z,70.88
2023-02-02T09:42:41.353Z,71.03
2023-02-02T09:43:41.232Z,71.27
2023-02-02T09:44:41.254Z,71.03
2023-02-02T09:45:41.212Z,70.84
2023-02-02T09:46:41.267Z,70.66
2023-02-02T09:47:41.163Z,70.51
2023-02-02T09:48:41.182Z,70.83
2023-02-02T09:49:41.151Z,71.30
2023-02-02T09:50:42.264Z,70.55
2023-02-02T09:51:41.413Z,70.09
2023-02-02T09:52:41.246Z,70.35
2023-02-02T09:53:54.810Z,70.70
2023-02-02T09:54:42.146Z,70.59
2023-02-02T09:55:41.917Z,70.39
2023-02-02T09:56:41.067Z,70.48
2023-02-02T09:57:41.181Z,70.25
2023-02-02T09:58:41.095Z,69.86
2023-02-02T09:59:41.099Z,69.80
2023-02-02T10:00:41.129Z,70.02
2023-02-02T10:01:41.168Z,70.18
2023-02-02T10:02:40.990Z,70.79
2023-02-02T10:03:41.547Z,70.19
2023-02-02T10:04:41.138Z,70.44
2023-02-02T10:05:41.168Z,70.11
2023-02-02T10:06:40.950Z,69.87
2023-02-02T10:07:41.007Z,69.98
2023-02-02T10:08:41.000Z,69.65
2023-02-02T10:09:40.977Z,70.02
2023-02-02T10:10:40.917Z,69.78
2023-02-02T10:11:42.068Z,69.43
2023-02-02T10:12:40.861Z,69.69
2023-02-02T10:13:40.849Z,69.83
2023-02-02T10:14:40.878Z,70.21
2023-02-02T10:15:40.963Z,70.19
2023-02-02T10:16:40.854Z,70.04
2023-02-02T10:17:40.977Z,70.06
2023-02-02T10:18:40.787Z,70.26
2023-02-02T10:19:40.869Z,70.39
2023-02-02T10:20:40.851Z,70.46
2023-02-02T10:21:40.846Z,70.42
2023-02-02T10:22:40.749Z,70.64
2023-02-02T10:23:41.818Z,70.37
2023-02-02T10:24:40.916Z,70.60
2023-02-02T10:25:40.916Z,70.41
2023-02-02T10:26:40.887Z,70.85
2023-02-02T10:27:40.912Z,70.73
2023-02-02T10:28:40.685Z,70.62
2023-02-02T10:29:48.941Z,70.58
2023-02-02T10:30:41.839Z,70.89
2023-02-02T10:31:40.822Z,70.99
2023-02-02T10:32:40.612Z,70.85
2023-02-02T10:33:40.959Z,71.02
2023-02-02T10:34:40.781Z,70.54
2023-02-02T10:35:40.749Z,69.99
2023-02-02T10:36:40.638Z,70.38
2023-02-02T10:37:40.945Z,70.85
2023-02-02T10:38:40.503Z,69.97
2023-02-02T10:39:40.838Z,70.02
2023-02-02T10:40:40.644Z,70.19
2023-02-02T10:41:40.746Z,70.15
2023-02-02T10:42:41.528Z,69.92
2023-02-02T10:43:40.551Z,69.89
2023-02-02T10:44:40.707Z,69.86
2023-02-02T10:45:40.665Z,70.07
2023-02-02T10:46:40.629Z,69.73
2023-02-02T10:47:40.602Z,69.92
2023-02-02T10:48:40.423Z,69.73
2023-02-02T10:49:40.592Z,69.65
2023-02-02T10:50:40.456Z,69.47
2023-02-02T10:51:41.593Z,69.45
2023-02-02T10:52:40.464Z,69.41
2023-02-02T10:53:40.328Z,68.44
2023-02-02T10:54:54.970Z,68.66
2023-02-02T10:55:41.282Z,68.33
2023-02-02T10:56:40.380Z,68.50
2023-02-02T10:57:40.230Z,68.33
2023-02-02T10:58:40.261Z,68.19
2023-02-02T10:59:40.204Z,68.08
2023-02-02T11:00:40.353Z,68.06
2023-02-02T11:01:40.210Z,68.13
2023-02-02T11:02:40.226Z,67.91
2023-02-02T11:03:40.164Z,67.92
2023-02-02T11:04:40.194Z,67.75
2023-02-02T11:05:40.138Z,67.87
2023-02-02T11:06:40.157Z,68.13
2023-02-02T11:07:40.104Z,67.61
2023-02-02T11:08:40.125Z,67.42
2023-02-02T11:09:40.063Z,67.85
2023-02-02T11:10:41.559Z,67.92
2023-02-02T11:11:40.137Z,68.16
2023-02-02T11:12:40.363Z,67.77
2023-02-02T11:13:40.098Z,67.78
2023-02-02T11:14:45.311Z,67.64
2023-02-02T11:15:41.021Z,67.54
2023-02-02T11:16:43.648Z,66.97
2023-02-02T11:17:40.008Z,67.02
2023-02-02T11:18:40.082Z,66.92
2023-02-02T11:19:40.134Z,67.15
2023-02-02T11:20:40.007Z,67.49
2023-02-02T11:21:39.920Z,67.35
2023-02-02T11:22:39.925Z,67.18
2023-02-02T11:23:39.894Z,67.43
2023-02-02T11:24:39.996Z,67.33
2023-02-02T11:25:39.864Z,67.67
2023-02-02T11:26:39.970Z,67.89
2023-02-02T11:27:40.662Z,68.11
2023-02-02T11:28:39.909Z,67.66
2023-02-02T11:29:39.816Z,67.37
2023-02-02T11:30:40.079Z,67.66
2023-02-02T11:31:40.122Z,67.41
2023-02-02T11:32:39.827Z,67.37
2023-02-02T11:33:39.803Z,66.93
2023-02-02T11:34:39.834Z,67.03
2023-02-02T11:35:39.850Z,67.18
2023-02-02T11:36:39.910Z,67.10
2023-02-02T11:37:39.692Z,66.97
2023-02-02T11:38:39.722Z,67.05
2023-02-02T11:39:39.697Z,67.39
2023-02-02T11:40:39.735Z,67.60
2023-02-02T11:41:39.650Z,67.27
2023-02-02T11:42:39.712Z,67.14
2023-02-02T11:43:39.619Z,67.49
2023-02-02T11:44:39.671Z,67.24
2023-02-02T11:45:39.657Z,66.08
2023-02-02T11:46:39.714Z,66.26
2023-02-02T11:47:39.563Z,66.47
2023-02-02T11:48:39.674Z,66.41
2023-02-02T11:49:39.550Z,66.11
2023-02-02T11:50:39.708Z,66.08
2023-02-02T11:51:39.544Z,66.28
2023-02-02T11:52:39.551Z,66.56
2023-02-02T11:53:39.491Z,66.39
2023-02-02T11:54:39.591Z,66.67
2023-02-02T11:55:39.461Z,66.62
2023-02-02T11:56:39.550Z,66.52
2023-02-02T11:57:39.442Z,66.93
2023-02-02T11:58:39.481Z,67.24
2023-02-02T11:59:39.401Z,67.29
2023-02-02T12:00:42.701Z,67.90
2023-02-02T12:01:39.452Z,67.89
2023-02-02T12:02:39.392Z,68.38
2023-02-02T12:03:39.658Z,68.44
2023-02-02T12:04:39.428Z,68.48
2023-02-02T12:05:39.334Z,69.34
2023-02-02T12:06:39.387Z,69.70
2023-02-02T12:07:39.303Z,69.71
2023-02-02T12:08:39.346Z,69.61
2023-02-02T12:09:39.283Z,69.23
2023-02-02T12:10:39.354Z,69.30
2023-02-02T12:11:39.251Z,69.22
2023-02-02T12:12:39.330Z,69.10
2023-02-02T12:13:39.219Z,69.31
2023-02-02T12:14:39.293Z,69.57
2023-02-02T12:15:39.203Z,69.27
2023-02-02T12:16:39.349Z,69.36
2023-02-02T12:17:39.157Z,69.52
2023-02-02T12:18:39.281Z,69.24
2023-02-02T12:19:39.136Z,69.32
2023-02-02T12:20:40.248Z,69.42
2023-02-02T12:21:39.120Z,69.50
2023-02-02T12:22:39.129Z,69.34
2023-02-02T12:23:39.091Z,69.74
2023-02-02T12:24:39.197Z,69.78
2023-02-02T12:25:39.065Z,69.60
2023-02-02T12:26:39.243Z,69.69
2023-02-02T12:27:39.074Z,69.60
2023-02-02T12:28:39.083Z,69.49
2023-02-02T12:29:39.020Z,69.52
2023-02-02T12:30:39.041Z,69.54
2023-02-02T12:31:39.018Z,69.55
2023-02-02T12:32:38.969Z,69.75
2023-02-02T12:33:38.988Z,69.63
2023-02-02T12:34:39.012Z,69.79
2023-02-02T12:35:38.932Z,70.01
2023-02-02T12:36:39.037Z,70.06
2023-02-02T12:37:38.897Z,69.58
2023-02-02T12:38:38.944Z,69.70
2023-02-02T12:39:38.885Z,70.32
2023-02-02T12:40:38.958Z,70.03
2023-02-02T12:41:38.858Z,69.45
2023-02-02T12:42:38.861Z,69.38
2023-02-02T12:43:38.827Z,69.54
2023-02-02T12:44:38.837Z,69.33
2023-02-02T12:45:38.805Z,69.60
2023-02-02T12:46:38.798Z,69.73
2023-02-02T12:47:38.756Z,69.80
2023-02-02T12:48:39.891Z,69.89
2023-02-02T12:49:38.746Z,70.19
2023-02-02T12:50:38.831Z,70.42
2023-02-02T12:51:38.727Z,70.47
2023-02-02T12:52:38.735Z,69.86